Time;durP1;ratioP1;P1;durP2;ratioP2;P2;SDS_P1;SDS_P2;PMS_P1;PMS_P2;Temp;Humidity;BMP_temperature;BMP_pressure;BME280_temperature;BME280_humidity;BME280_pressure;Samples;Min_cycle;Max_cycle;Signal;HPM_P1;HPM_P2
2022/07/24 00:01:16;;;;;;;7.23;6.73;;;20.10;66.10;;;;;;4985104;28;20519;-75
2022/07/24 00:03:43;;;;;;;7.10;6.60;;;20.00;66.60;;;;;;4986465;28;20548;-75
2022/07/24 00:06:10;;;;;;;7.30;6.80;;;19.90;67.90;;;;;;4984072;28;20852;-75
2022/07/24 00:08:37;;;;;;;6.72;6.22;;;19.90;67.10;;;;;;4986944;28;20429;-75
2022/07/24 00:11:04;;;;;;;7.47;6.87;;;19.90;67.40;;;;;;4985304;28;20536;-75
2022/07/24 00:13:30;;;;;;;7.17;6.67;;;19.80;68.30;;;;;;4987290;28;20746;-75
2022/07/24 00:15:57;;;;;;;7.03;6.53;;;19.80;67.80;;;;;;4986516;28;20502;-74
2022/07/24 00:18:25;;;;;;;7.32;6.82;;;19.80;68.40;;;;;;4987401;28;20414;-75
2022/07/24 00:20:52;;;;;;;7.77;7.17;;;19.80;68.70;;;;;;4984485;28;20426;-75
2022/07/24 00:23:19;;;;;;;7.60;7.10;;;19.70;69.00;;;;;;4988401;28;20583;-72
2022/07/24 00:25:46;;;;;;;7.80;7.13;;;19.70;68.70;;;;;;4986237;28;20425;-74
2022/07/24 00:28:13;;;;;;;7.35;6.85;;;19.70;68.30;;;;;;4987602;28;20418;-75
2022/07/24 00:30:40;;;;;;;7.95;7.45;;;19.70;68.00;;;;;;4985090;28;20433;-74
2022/07/24 00:33:07;;;;;;;7.75;7.15;;;19.60;69.70;;;;;;4986629;28;20429;-73
2022/07/24 00:35:35;;;;;;;8.00;7.50;;;19.60;69.10;;;;;;4984203;28;20423;-74
2022/07/24 00:38:03;;;;;;;7.07;6.57;;;19.60;69.00;;;;;;4986876;28;20525;-74
2022/07/24 00:40:30;;;;;;;7.78;7.10;;;19.60;70.60;;;;;;4985464;28;20441;-74
2022/07/24 00:42:58;;;;;;;7.85;7.25;;;19.50;69.40;;;;;;4987106;28;20430;-74
2022/07/24 00:45:25;;;;;;;7.95;7.32;;;19.50;70.30;;;;;;4986301;28;20458;-75
2022/07/24 00:47:52;;;;;;;8.10;7.60;;;19.40;70.60;;;;;;4986881;28;20959;-75
2022/07/24 00:50:19;;;;;;;8.23;7.60;;;19.50;69.80;;;;;;4983920;28;20837;-75
2022/07/24 00:52:48;;;;;;;7.70;7.10;;;19.40;70.30;;;;;;4985664;28;20970;-73
2022/07/24 00:55:15;;;;;;;7.70;7.20;;;19.30;70.00;;;;;;4985852;28;20444;-75
2022/07/24 00:57:45;;;;;;;8.10;7.50;;;19.30;70.30;;;;;;4985915;28;20437;-74
2022/07/24 01:00:13;;;;;;;8.32;7.75;;;19.30;71.10;;;;;;4985467;28;20513;-73
2022/07/24 01:02:40;;;;;;;8.13;7.50;;;19.20;71.20;;;;;;4986274;28;20498;-73
2022/07/24 01:05:08;;;;;;;7.82;7.32;;;19.20;71.00;;;;;;4985213;28;20420;-72
2022/07/24 01:07:35;;;;;;;8.60;8.00;;;19.20;71.70;;;;;;4985314;28;20523;-75
2022/07/24 01:10:04;;;;;;;8.40;7.80;;;19.20;71.10;;;;;;4985226;28;20457;-73
2022/07/24 01:12:32;;;;;;;8.00;7.40;;;19.20;71.40;;;;;;4985971;28;20491;-74
2022/07/24 01:14:59;;;;;;;9.35;8.65;;;19.10;71.00;;;;;;4986441;28;20429;-75
2022/07/24 01:17:30;;;;;;;8.68;8.07;;;19.00;72.30;;;;;;4985663;28;20422;-74
2022/07/24 01:19:57;;;;;;;8.50;7.90;;;19.00;71.70;;;;;;4985360;28;20549;-74
2022/07/24 01:22:26;;;;;;;8.40;7.70;;;19.00;71.80;;;;;;4984730;28;20414;-72
2022/07/24 01:24:53;;;;;;;8.40;7.80;;;19.00;72.10;;;;;;4987216;28;20792;-73
2022/07/24 01:27:21;;;;;;;8.93;8.23;;;18.90;72.00;;;;;;4989619;28;20436;-75
2022/07/24 01:29:47;;;;;;;8.70;8.07;;;19.00;72.20;;;;;;4989233;28;20502;-74
2022/07/24 01:32:14;;;;;;;8.60;8.00;;;18.90;72.40;;;;;;4988604;28;20434;-74
2022/07/24 01:34:41;;;;;;;8.40;7.80;;;18.90;73.00;;;;;;4989688;28;20426;-74
2022/07/24 01:37:08;;;;;;;8.45;7.75;;;18.80;73.60;;;;;;4985202;28;20756;-74
2022/07/24 01:39:37;;;;;;;9.40;8.70;;;18.80;73.10;;;;;;4989518;28;20422;-74
2022/07/24 01:42:04;;;;;;;8.82;8.23;;;18.80;74.20;;;;;;4987750;28;20501;-73
2022/07/24 01:44:31;;;;;;;8.90;8.20;;;18.80;73.60;;;;;;4989606;28;20452;-73
2022/07/24 01:46:57;;;;;;;8.68;7.97;;;18.80;73.00;;;;;;4988883;28;20525;-74
2022/07/24 01:49:24;;;;;;;9.00;8.40;;;18.80;73.40;;;;;;5009392;22;20444;-72
2022/07/24 01:51:51;;;;;;;9.10;8.40;;;18.80;72.90;;;;;;5001700;28;21003;-72
2022/07/24 01:54:18;;;;;;;9.50;8.80;;;18.80;73.20;;;;;;5031905;28;20492;-72
2022/07/24 01:56:46;;;;;;;8.60;8.00;;;18.70;74.00;;;;;;5031586;28;20790;-72
2022/07/24 01:59:13;;;;;;;8.80;8.10;;;18.70;72.90;;;;;;5032525;28;20479;-70
2022/07/24 02:01:40;;;;;;;8.90;8.30;;;18.70;73.20;;;;;;5030814;28;20469;-71
2022/07/24 02:04:07;;;;;;;8.30;7.80;;;18.60;73.50;;;;;;5032276;28;20433;-72
2022/07/24 02:06:34;;;;;;;9.23;8.52;;;18.60;73.00;;;;;;5030506;28;20502;-71
2022/07/24 02:09:00;;;;;;;9.40;8.70;;;18.50;73.00;;;;;;5031999;28;20748;-71
2022/07/24 02:11:27;;;;;;;10.10;9.30;;;18.50;72.80;;;;;;5030384;28;20868;-71
2022/07/24 02:13:56;;;;;;;10.07;9.38;;;18.50;74.20;;;;;;5031949;28;20423;-72
2022/07/24 02:16:24;;;;;;;10.30;9.60;;;18.40;74.50;;;;;;5031629;28;20520;-71
2022/07/24 02:18:50;;;;;;;10.93;10.18;;;18.40;74.20;;;;;;5031880;28;20418;-71
2022/07/24 02:21:17;;;;;;;10.18;9.38;;;18.30;74.50;;;;;;5029275;28;20455;-71
2022/07/24 02:23:44;;;;;;;10.38;9.60;;;18.30;74.90;;;;;;5032058;28;20425;-72
2022/07/24 02:26:11;;;;;;;9.30;8.60;;;18.30;75.40;;;;;;5031048;28;20427;-73
2022/07/24 02:28:38;;;;;;;9.95;9.25;;;18.30;75.80;;;;;;5031407;28;20927;-72
2022/07/24 02:31:06;;;;;;;9.60;8.82;;;18.30;74.80;;;;;;5030894;28;20415;-71
2022/07/24 02:33:33;;;;;;;9.25;8.65;;;18.20;75.30;;;;;;5032280;28;20418;-73
2022/07/24 02:36:00;;;;;;;9.38;8.68;;;18.20;75.30;;;;;;5028830;28;20433;-73
2022/07/24 02:38:27;;;;;;;9.38;8.68;;;18.20;76.00;;;;;;4992871;28;20423;-71
2022/07/24 02:40:54;;;;;;;9.13;8.52;;;18.20;76.40;;;;;;4990568;28;20502;-71
2022/07/24 02:43:21;;;;;;;9.38;8.77;;;18.20;75.90;;;;;;4992688;28;20414;-71
2022/07/24 02:45:47;;;;;;;9.15;8.45;;;18.30;76.00;;;;;;4991492;28;20504;-71
2022/07/24 02:48:16;;;;;;;9.10;8.35;;;18.20;75.80;;;;;;4991863;28;20422;-72
2022/07/24 02:50:42;;;;;;;9.00;8.40;;;18.20;75.60;;;;;;4989388;28;20549;-71
2022/07/24 02:53:09;;;;;;;9.67;8.97;;;18.20;76.30;;;;;;4992198;28;20531;-72
2022/07/24 02:55:36;;;;;;;9.98;9.18;;;18.20;76.00;;;;;;4991518;28;20820;-73
2022/07/24 02:58:03;;;;;;;10.10;9.30;;;18.20;75.90;;;;;;4991898;28;20414;-74
2022/07/24 03:00:30;;;;;;;9.63;9.03;;;18.10;76.20;;;;;;4990893;28;20422;-72
2022/07/24 03:02:57;;;;;;;9.50;8.80;;;18.00;76.60;;;;;;4992768;28;20410;-71
2022/07/24 03:05:26;;;;;;;9.30;8.63;;;18.00;76.20;;;;;;4990776;28;20978;-71
2022/07/24 03:07:53;;;;;;;9.93;9.13;;;18.00;76.40;;;;;;4991907;28;20418;-71
2022/07/24 03:10:20;;;;;;;9.20;8.60;;;18.00;76.30;;;;;;4990118;28;20421;-71
2022/07/24 03:12:47;;;;;;;9.52;8.90;;;17.90;76.80;;;;;;4991892;28;20435;-71
2022/07/24 03:15:15;;;;;;;9.50;8.70;;;17.90;77.10;;;;;;4990930;28;20418;-73
2022/07/24 03:17:50;;;;;;;10.30;9.50;;;17.90;78.90;;;;;;4991966;28;20422;-72
2022/07/24 03:20:17;;;;;;;9.55;8.85;;;17.90;78.00;;;;;;4988946;28;21325;-71
2022/07/24 03:22:46;;;;;;;9.10;8.50;;;17.80;78.70;;;;;;4990879;28;20431;-72
2022/07/24 03:25:12;;;;;;;9.30;8.70;;;17.80;78.00;;;;;;4991057;28;20707;-71
2022/07/24 03:27:39;;;;;;;9.30;8.60;;;17.80;77.70;;;;;;4991567;28;20508;-71
2022/07/24 03:30:08;;;;;;;9.48;8.80;;;17.80;77.30;;;;;;4989477;28;20425;-71
2022/07/24 03:32:35;;;;;;;9.00;8.30;;;17.80;77.70;;;;;;4991394;28;20430;-71
2022/07/24 03:35:02;;;;;;;10.05;9.35;;;17.80;77.40;;;;;;4990915;28;20417;-71
2022/07/24 03:37:29;;;;;;;9.45;8.77;;;17.70;77.90;;;;;;4989765;28;20434;-71
2022/07/24 03:39:57;;;;;;;10.00;9.20;;;17.70;77.50;;;;;;4990374;28;20437;-72
2022/07/24 03:42:24;;;;;;;9.40;8.73;;;17.70;77.70;;;;;;4991292;28;20497;-72
2022/07/24 03:44:51;;;;;;;9.60;9.00;;;17.70;78.00;;;;;;4991585;28;20918;-71
2022/07/24 03:47:18;;;;;;;9.80;9.20;;;17.60;77.60;;;;;;4990768;28;20481;-73
2022/07/24 03:49:45;;;;;;;9.70;9.10;;;17.60;77.80;;;;;;4990963;28;20838;-71
2022/07/24 03:52:11;;;;;;;9.82;9.13;;;17.60;78.00;;;;;;4988499;28;20456;-71
2022/07/24 03:54:38;;;;;;;9.68;8.88;;;17.60;78.50;;;;;;4996405;28;20453;-72
2022/07/24 03:57:07;;;;;;;9.38;8.68;;;17.60;78.90;;;;;;4997265;28;20498;-71
2022/07/24 03:59:33;;;;;;;9.82;9.02;;;17.60;79.10;;;;;;4996655;28;20449;-71
2022/07/24 04:02:00;;;;;;;10.20;9.50;;;17.60;78.90;;;;;;4992085;28;20494;-71
2022/07/24 04:04:27;;;;;;;9.68;8.98;;;17.60;79.30;;;;;;4992235;28;20428;-71
2022/07/24 04:06:54;;;;;;;9.90;9.20;;;17.60;79.80;;;;;;4992091;28;20429;-71
2022/07/24 04:09:21;;;;;;;9.57;8.88;;;17.60;80.60;;;;;;4989975;28;20461;-71
2022/07/24 04:11:48;;;;;;;9.57;8.98;;;17.60;79.00;;;;;;4989346;28;20428;-70
2022/07/24 04:14:16;;;;;;;9.70;9.00;;;17.60;79.50;;;;;;4989636;28;20770;-72
2022/07/24 04:16:43;;;;;;;9.30;8.70;;;17.60;79.10;;;;;;4989649;28;20508;-71
2022/07/24 04:19:10;;;;;;;9.30;8.60;;;17.70;79.20;;;;;;4989887;28;20434;-71
2022/07/24 04:21:37;;;;;;;9.27;8.68;;;17.70;78.70;;;;;;4987202;28;20509;-72
2022/07/24 04:24:04;;;;;;;9.32;8.70;;;17.70;79.10;;;;;;4989758;28;20419;-71
2022/07/24 04:26:31;;;;;;;8.90;8.30;;;17.70;78.70;;;;;;4988908;28;20929;-74
2022/07/24 04:28:57;;;;;;;9.07;8.47;;;17.70;78.50;;;;;;4989564;28;20414;-71
2022/07/24 04:31:26;;;;;;;9.37;8.67;;;17.70;78.40;;;;;;4987833;28;20464;-71
2022/07/24 04:33:52;;;;;;;8.45;7.95;;;17.80;78.00;;;;;;4989431;28;20434;-73
2022/07/24 04:36:19;;;;;;;8.38;7.88;;;17.80;77.30;;;;;;4990555;28;20813;-72
2022/07/24 04:38:46;;;;;;;8.95;8.30;;;17.80;77.80;;;;;;4991541;28;20846;-71
2022/07/24 04:41:14;;;;;;;8.90;8.20;;;17.80;77.40;;;;;;4988649;28;20792;-72
2022/07/24 04:43:41;;;;;;;8.60;8.10;;;17.80;76.80;;;;;;4989184;28;20509;-75
2022/07/24 04:46:08;;;;;;;8.63;7.95;;;17.80;77.00;;;;;;4988723;28;20465;-70
2022/07/24 04:48:36;;;;;;;8.20;7.60;;;17.80;76.50;;;;;;4989313;28;20422;-71
2022/07/24 04:51:03;;;;;;;8.52;7.97;;;17.80;76.40;;;;;;4986756;28;20422;-71
2022/07/24 04:53:30;;;;;;;8.37;7.87;;;17.90;76.30;;;;;;4989792;28;20529;-72
2022/07/24 04:55:57;;;;;;;8.93;8.13;;;17.90;76.60;;;;;;4989142;28;20422;-72
2022/07/24 04:58:25;;;;;;;8.60;8.00;;;17.90;75.90;;;;;;4992748;28;20824;-72
2022/07/24 05:00:53;;;;;;;8.73;8.03;;;17.90;75.40;;;;;;4993673;28;20505;-70
2022/07/24 05:03:20;;;;;;;8.30;7.70;;;17.80;75.30;;;;;;4997021;28;20448;-71
2022/07/24 05:05:48;;;;;;;8.73;8.13;;;17.90;75.30;;;;;;4996031;28;20520;-71
2022/07/24 05:08:15;;;;;;;8.60;7.93;;;17.80;75.30;;;;;;5004069;28;20420;-73
2022/07/24 05:10:42;;;;;;;8.80;8.20;;;17.80;75.70;;;;;;5007649;28;20438;-73
2022/07/24 05:13:09;;;;;;;8.30;7.70;;;17.80;75.70;;;;;;4997921;28;20438;-71
2022/07/24 05:15:36;;;;;;;8.40;7.80;;;17.90;75.10;;;;;;4995601;28;20478;-71
2022/07/24 05:18:03;;;;;;;8.45;7.85;;;17.90;75.50;;;;;;4995929;28;20433;-71
2022/07/24 05:20:30;;;;;;;8.65;8.05;;;17.90;75.40;;;;;;4993277;28;20424;-72
2022/07/24 05:22:58;;;;;;;8.10;7.60;;;18.00;75.30;;;;;;4994779;28;20418;-72
2022/07/24 05:25:25;;;;;;;8.23;7.63;;;18.00;75.30;;;;;;4994958;28;20798;-72
2022/07/24 05:27:52;;;;;;;8.10;7.55;;;18.10;76.10;;;;;;5013461;28;20446;-72
2022/07/24 05:30:19;;;;;;;7.60;7.10;;;18.10;75.30;;;;;;5013767;28;20711;-73
2022/07/24 05:32:46;;;;;;;8.45;7.95;;;18.20;74.90;;;;;;4995567;28;20425;-72
2022/07/24 05:35:12;;;;;;;8.10;7.60;;;18.20;75.20;;;;;;4992659;28;20860;-73
2022/07/24 05:37:39;;;;;;;8.40;7.70;;;18.20;75.10;;;;;;5005607;28;20425;-72
2022/07/24 05:40:08;;;;;;;7.90;7.30;;;18.30;74.30;;;;;;5012347;28;20456;-71
2022/07/24 05:42:35;;;;;;;7.63;7.13;;;18.30;74.70;;;;;;5013388;28;20419;-72
2022/07/24 05:45:02;;;;;;;7.50;6.90;;;18.40;73.80;;;;;;5013512;28;20462;-73
2022/07/24 05:47:29;;;;;;;7.13;6.72;;;18.40;74.60;;;;;;5015458;28;20491;-73
2022/07/24 05:49:56;;;;;;;7.78;7.18;;;18.40;73.00;;;;;;5015782;28;21121;-71
2022/07/24 05:52:23;;;;;;;8.10;7.50;;;18.50;73.40;;;;;;5011780;28;20478;-72
2022/07/24 05:54:50;;;;;;;7.78;7.28;;;18.60;73.30;;;;;;5013031;28;20455;-72
2022/07/24 05:57:18;;;;;;;8.90;8.20;;;18.60;72.90;;;;;;5012354;28;20830;-72
2022/07/24 05:59:45;;;;;;;7.90;7.40;;;18.60;72.90;;;;;;5012279;28;20803;-72
2022/07/24 06:02:12;;;;;;;7.80;7.30;;;18.60;73.10;;;;;;5010825;28;20508;-72
2022/07/24 06:04:41;;;;;;;7.60;7.10;;;18.70;72.80;;;;;;5012873;28;20480;-72
2022/07/24 06:07:09;;;;;;;7.53;7.03;;;18.70;72.80;;;;;;5010974;28;20508;-71
2022/07/24 06:09:36;;;;;;;7.90;7.30;;;18.70;72.80;;;;;;5013802;28;20586;-71
2022/07/24 06:12:02;;;;;;;8.10;7.50;;;18.70;72.90;;;;;;5012732;28;20414;-71
2022/07/24 06:14:31;;;;;;;8.30;7.70;;;18.70;72.50;;;;;;5014348;28;20435;-71
2022/07/24 06:16:57;;;;;;;8.18;7.57;;;18.70;73.10;;;;;;5030460;28;20473;-73
2022/07/24 06:19:24;;;;;;;7.90;7.30;;;18.80;74.40;;;;;;5035356;28;20412;-71
2022/07/24 06:21:51;;;;;;;8.20;7.60;;;18.90;73.40;;;;;;5033783;28;20488;-73
2022/07/24 06:24:18;;;;;;;8.57;7.78;;;18.90;72.00;;;;;;5035437;28;20435;-72
2022/07/24 06:26:45;;;;;;;8.00;7.40;;;19.00;72.00;;;;;;5032042;28;20429;-73
2022/07/24 06:29:12;;;;;;;7.40;6.80;;;19.10;71.50;;;;;;5011218;28;20500;-71
2022/07/24 06:31:40;;;;;;;7.90;7.30;;;19.20;71.70;;;;;;5011313;28;20884;-71
2022/07/24 06:34:07;;;;;;;7.60;6.90;;;19.20;71.20;;;;;;5012107;28;20976;-71
2022/07/24 06:36:34;;;;;;;7.68;7.07;;;19.30;70.80;;;;;;5010185;28;20425;-71
2022/07/24 06:39:01;;;;;;;7.78;7.20;;;19.40;70.20;;;;;;5011683;28;20421;-71
2022/07/24 06:41:28;;;;;;;7.18;6.68;;;19.50;69.80;;;;;;5010351;28;20427;-71
2022/07/24 06:43:54;;;;;;;7.97;7.38;;;19.50;70.30;;;;;;5012020;28;20917;-71
2022/07/24 06:46:21;;;;;;;7.60;7.10;;;19.60;70.00;;;;;;5010689;28;20511;-72
2022/07/24 06:48:49;;;;;;;7.50;6.80;;;19.70;69.00;;;;;;5011038;28;20427;-74
2022/07/24 06:51:17;;;;;;;7.70;7.10;;;19.70;69.20;;;;;;5008476;28;20423;-72
2022/07/24 06:53:46;;;;;;;7.32;6.82;;;19.90;69.20;;;;;;5010928;28;20463;-71
2022/07/24 06:56:13;;;;;;;7.68;7.07;;;20.00;68.70;;;;;;5010900;28;20841;-73
2022/07/24 06:58:40;;;;;;;7.35;6.85;;;20.10;68.40;;;;;;5011330;28;20431;-73
2022/07/24 07:01:07;;;;;;;7.28;6.78;;;20.20;68.20;;;;;;5009225;28;20416;-72
2022/07/24 07:03:34;;;;;;;7.25;6.65;;;20.30;67.70;;;;;;5011340;28;20432;-71
2022/07/24 07:06:02;;;;;;;6.88;6.30;;;20.50;67.10;;;;;;5009791;28;20861;-73
2022/07/24 07:08:29;;;;;;;7.40;6.70;;;20.70;66.20;;;;;;5010806;28;20492;-72
2022/07/24 07:10:55;;;;;;;7.93;7.13;;;20.80;65.80;;;;;;5010080;28;20431;-73
2022/07/24 07:13:22;;;;;;;6.95;6.35;;;20.90;65.30;;;;;;5011593;28;20515;-72
2022/07/24 07:15:49;;;;;;;6.63;6.03;;;21.00;65.00;;;;;;5010436;28;20648;-71
2022/07/24 07:18:16;;;;;;;6.03;5.53;;;21.20;64.80;;;;;;5010752;28;20413;-72
2022/07/24 07:20:43;;;;;;;7.00;6.50;;;21.40;64.20;;;;;;5008034;28;20421;-71
2022/07/24 07:23:11;;;;;;;8.13;6.40;;;21.60;63.70;;;;;;5010763;28;20480;-71
2022/07/24 07:25:38;;;;;;;7.00;6.40;;;21.80;63.50;;;;;;5010307;28;20456;-73
2022/07/24 07:28:05;;;;;;;6.97;6.47;;;21.90;62.50;;;;;;5010646;28;20417;-73
2022/07/24 07:30:32;;;;;;;6.57;6.07;;;22.00;62.30;;;;;;5010861;28;20451;-72
2022/07/24 07:32:59;;;;;;;5.80;5.40;;;22.20;61.80;;;;;;5011011;28;20423;-73
2022/07/24 07:35:25;;;;;;;5.60;5.20;;;22.40;60.70;;;;;;5009121;28;20458;-73
2022/07/24 07:37:52;;;;;;;6.00;5.60;;;22.70;59.50;;;;;;4995436;28;20418;-73
2022/07/24 07:40:20;;;;;;;6.13;5.72;;;22.90;59.30;;;;;;4989496;28;20422;-74
2022/07/24 07:42:47;;;;;;;5.82;5.43;;;23.30;57.40;;;;;;4990789;28;20856;-74
2022/07/24 07:45:14;;;;;;;5.35;4.95;;;23.40;57.50;;;;;;4990578;28;20537;-71
2022/07/24 07:47:41;;;;;;;5.35;4.88;;;23.50;57.60;;;;;;4990715;28;20422;-72
2022/07/24 07:50:09;;;;;;;5.43;5.03;;;23.70;56.70;;;;;;4988892;28;20786;-73
2022/07/24 07:52:36;;;;;;;6.03;5.53;;;23.90;56.90;;;;;;4989144;28;20422;-73
2022/07/24 07:55:03;;;;;;;6.53;5.93;;;24.00;55.40;;;;;;4990371;28;20453;-73
2022/07/24 07:57:32;;;;;;;5.57;5.07;;;24.10;55.00;;;;;;4990265;28;20414;-73
2022/07/24 07:59:58;;;;;;;5.40;5.00;;;24.20;54.70;;;;;;4989537;28;20730;-73
2022/07/24 08:02:25;;;;;;;5.35;4.95;;;24.30;54.20;;;;;;4990237;28;20424;-73
2022/07/24 08:04:52;;;;;;;5.70;5.20;;;24.60;54.20;;;;;;4989879;28;20426;-74
2022/07/24 08:07:19;;;;;;;5.43;5.03;;;24.70;52.80;;;;;;4988324;28;20510;-71
2022/07/24 08:09:46;;;;;;;5.60;5.10;;;24.80;53.20;;;;;;4990100;28;20927;-73
2022/07/24 08:12:13;;;;;;;6.00;5.60;;;25.00;52.10;;;;;;4988214;28;20414;-73
2022/07/24 08:14:42;;;;;;;5.60;5.20;;;25.10;52.10;;;;;;4989854;28;20441;-74
2022/07/24 08:17:08;;;;;;;5.63;5.22;;;25.30;51.30;;;;;;4989404;28;20848;-73
2022/07/24 08:19:35;;;;;;;5.20;4.90;;;25.40;51.70;;;;;;4989980;28;20419;-71
2022/07/24 08:22:02;;;;;;;5.20;4.90;;;25.70;50.80;;;;;;4988441;28;20513;-73
2022/07/24 08:24:30;;;;;;;5.13;4.82;;;26.00;50.20;;;;;;4991350;28;20410;-73
2022/07/24 08:26:57;;;;;;;5.18;4.78;;;26.20;50.30;;;;;;4994508;28;20469;-73
2022/07/24 08:29:24;;;;;;;5.30;4.90;;;26.40;48.80;;;;;;4996652;28;20417;-73
2022/07/24 08:31:52;;;;;;;4.60;4.30;;;26.70;47.80;;;;;;5005932;28;20414;-72
2022/07/24 08:34:20;;;;;;;5.20;4.80;;;26.90;48.20;;;;;;5005292;28;20519;-74
2022/07/24 08:36:47;;;;;;;4.63;4.32;;;27.10;47.30;;;;;;4999343;28;20423;-71
2022/07/24 08:39:15;;;;;;;5.10;4.70;;;27.30;46.50;;;;;;5013008;28;20421;-71
2022/07/24 08:41:42;;;;;;;5.13;4.72;;;27.50;46.80;;;;;;5012102;28;20902;-73
2022/07/24 08:44:09;;;;;;;4.70;4.40;;;27.70;46.10;;;;;;5013491;28;20416;-71
2022/07/24 08:46:38;;;;;;;4.70;4.40;;;27.90;45.40;;;;;;5013235;28;20550;-72
2022/07/24 08:49:08;;;;;;;5.20;4.80;;;28.00;44.40;;;;;;5017311;28;20567;-71
2022/07/24 08:51:38;;;;;;;4.53;4.23;;;28.10;44.30;;;;;;5014840;28;20476;-72
2022/07/24 08:54:05;;;;;;;4.90;4.60;;;28.00;44.40;;;;;;5015105;28;20496;-71
2022/07/24 08:56:33;;;;;;;4.50;4.20;;;28.00;43.80;;;;;;5015077;28;20495;-72
2022/07/24 08:59:00;;;;;;;5.00;4.70;;;28.00;44.00;;;;;;5013763;28;20567;-72
2022/07/24 09:01:28;;;;;;;4.97;4.57;;;28.10;42.20;;;;;;5012531;28;20452;-72
2022/07/24 09:03:55;;;;;;;5.05;4.63;;;28.10;41.80;;;;;;5017378;28;20416;-71
2022/07/24 09:06:23;;;;;;;4.60;4.20;;;28.20;42.60;;;;;;5015873;28;20633;-72
2022/07/24 09:08:59;;;;;;;4.40;4.10;;;28.40;42.40;;;;;;5017994;28;20413;-71
2022/07/24 09:11:28;;;;;;;4.97;4.60;;;28.60;42.40;;;;;;5017901;28;20463;-71
2022/07/24 09:16:46;;;;;;;5.15;4.70;;;28.90;41.20;;;;;;5018804;28;20402;-71
2022/07/24 09:19:13;;;;;;;4.20;3.90;;;29.00;40.70;;;;;;5017787;28;20412;-72
2022/07/24 09:21:44;;;;;;;4.20;3.90;;;29.20;41.60;;;;;;5013065;28;20945;-73
2022/07/24 09:24:15;;;;;;;4.20;3.90;;;29.40;41.50;;;;;;5016962;28;20527;-71
2022/07/24 09:26:47;;;;;;;4.38;4.05;;;29.80;39.80;;;;;;5016165;28;20426;-71
2022/07/24 09:29:15;;;;;;;4.90;4.50;;;30.00;39.30;;;;;;5016331;28;20484;-72
2022/07/24 09:31:57;;;;;;;4.15;3.85;;;30.00;37.40;;;;;;5015962;28;20499;-71
2022/07/24 09:34:25;;;;;;;4.43;4.13;;;30.00;37.70;;;;;;5015318;28;20447;-77
2022/07/24 09:36:58;;;;;;;4.78;4.38;;;30.10;38.70;;;;;;5014442;28;20433;-73
2022/07/24 09:39:26;;;;;;;4.20;3.90;;;30.30;38.40;;;;;;5013220;28;20512;-72
2022/07/24 09:41:54;;;;;;;4.20;3.90;;;30.50;37.80;;;;;;5013608;28;20423;-72
2022/07/24 09:44:23;;;;;;;4.47;4.07;;;30.60;37.30;;;;;;5011826;28;20515;-72
2022/07/24 09:46:57;;;;;;;4.15;3.75;;;30.40;35.80;;;;;;5015996;28;20536;-72
2022/07/24 09:49:25;;;;;;;4.32;4.03;;;29.90;36.80;;;;;;5018955;28;20420;-72
2022/07/24 09:52:12;;;;;;;4.63;4.32;;;29.90;37.70;;;;;;5018308;28;20471;-74
2022/07/24 09:54:41;;;;;;;4.00;3.80;;;30.10;37.30;;;;;;5018726;28;20494;-73
2022/07/24 09:57:19;;;;;;;4.80;4.50;;;30.40;37.60;;;;;;5011748;28;20423;-70
2022/07/24 09:59:48;;;;;;;4.27;3.97;;;30.80;37.30;;;;;;5012899;28;20420;-72
2022/07/24 10:02:19;;;;;;;4.30;4.00;;;31.20;36.60;;;;;;5010950;28;20452;-74
2022/07/24 10:04:47;;;;;;;4.00;3.80;;;31.30;35.00;;;;;;5012391;28;20432;-72
2022/07/24 10:07:17;;;;;;;3.80;3.50;;;31.40;34.80;;;;;;5011016;28;20416;-72
2022/07/24 10:09:46;;;;;;;4.38;3.97;;;31.60;35.90;;;;;;5011583;28;20413;-73
2022/07/24 10:12:15;;;;;;;4.30;4.00;;;31.70;35.30;;;;;;5010226;28;20409;-74
2022/07/24 10:14:44;;;;;;;4.40;4.10;;;31.90;34.10;;;;;;5011837;28;20428;-72
2022/07/24 10:17:13;;;;;;;3.90;3.60;;;31.90;33.40;;;;;;5011812;28;20508;-75
2022/07/24 10:19:42;;;;;;;3.72;3.50;;;31.60;35.10;;;;;;5011802;28;20417;-73
2022/07/24 10:22:13;;;;;;;4.30;3.90;;;31.50;35.30;;;;;;5009846;28;20546;-74
2022/07/24 10:24:55;;;;;;;4.20;3.90;;;31.70;35.30;;;;;;5012786;28;20408;-71
2022/07/24 10:27:30;;;;;;;4.60;4.30;;;32.00;34.60;;;;;;5011485;28;20435;-73
2022/07/24 10:29:59;;;;;;;4.18;3.78;;;32.30;33.90;;;;;;5011573;28;20963;-76
2022/07/24 10:32:26;;;;;;;4.20;3.90;;;32.30;31.70;;;;;;5011885;28;20495;-72
2022/07/24 10:35:04;;;;;;;4.30;4.00;;;31.70;32.80;;;;;;5011435;28;20434;-72
2022/07/24 10:37:39;;;;;;;3.80;3.60;;;31.50;33.10;;;;;;4998666;28;20429;-73
2022/07/24 10:40:18;;;;;;;4.43;4.13;;;31.50;34.70;;;;;;4990267;28;20410;-72
2022/07/24 10:43:14;;;;;;;4.10;3.80;;;31.60;33.20;;;;;;4991809;28;20744;-72
2022/07/24 10:45:43;;;;;;;4.30;4.00;;;31.60;33.40;;;;;;4991273;28;20418;-72
2022/07/24 10:48:30;;;;;;;4.40;4.10;;;31.80;33.70;;;;;;4992061;28;20509;-74
2022/07/24 10:51:03;;;;;;;4.30;4.00;;;32.00;33.10;;;;;;4989526;28;20573;-71
2022/07/24 10:53:32;;;;;;;4.40;4.00;;;32.30;32.90;;;;;;4991917;28;20414;-73
2022/07/24 10:56:19;;;;;;;4.50;4.20;;;32.60;33.50;;;;;;4990972;28;20434;-72
2022/07/24 10:59:03;;;;;;;4.10;3.80;;;32.60;33.20;;;;;;4991216;28;20433;-76
2022/07/24 11:01:42;;;;;;;4.10;3.70;;;32.60;32.60;;;;;;4990427;28;20433;-72
2022/07/24 11:04:30;;;;;;;4.10;3.80;;;32.60;33.20;;;;;;4991586;28;20451;-71
2022/07/24 11:07:08;;;;;;;3.70;3.50;;;32.90;33.00;;;;;;4990646;28;20874;-70
2022/07/24 11:09:56;;;;;;;4.65;4.15;;;33.20;32.60;;;;;;4991993;28;20771;-73
2022/07/24 11:12:29;;;;;;;4.30;4.00;;;33.50;31.50;;;;;;4991290;28;20434;-72
2022/07/24 11:15:53;;;;;;;3.70;3.50;;;33.60;31.30;;;;;;4991187;28;20434;-75
2022/07/24 11:17:49;;;;;;;3.60;3.40;;;33.70;31.00;;;;;;4991263;28;20484;-76
2022/07/24 11:20:17;;;;;;;4.03;3.72;;;33.60;31.40;;;;;;4989846;28;21277;-73
2022/07/24 11:22:47;;;;;;;3.47;3.20;;;33.60;30.00;;;;;;4992738;28;20529;-72
2022/07/24 11:25:19;;;;;;;3.70;3.50;;;33.40;30.30;;;;;;4991920;28;20422;-73
2022/07/24 11:27:58;;;;;;;3.90;3.60;;;33.20;30.30;;;;;;4994964;28;20626;-72
2022/07/24 11:30:28;;;;;;;3.70;3.42;;;33.20;30.90;;;;;;4991742;28;20469;-71
2022/07/24 11:32:55;;;;;;;3.97;3.78;;;33.20;31.10;;;;;;4993076;28;20425;-76
2022/07/24 11:35:34;;;;;;;3.80;3.60;;;33.20;30.80;;;;;;4993470;28;20525;-72
2022/07/24 11:38:02;;;;;;;3.80;3.60;;;33.50;30.80;;;;;;4994889;28;20429;-74
2022/07/24 11:40:30;;;;;;;3.90;3.60;;;33.60;29.70;;;;;;4996468;28;20426;-74
2022/07/24 11:42:59;;;;;;;3.65;3.35;;;33.40;31.10;;;;;;4999735;28;20431;-75
2022/07/24 11:45:26;;;;;;;3.90;3.60;;;33.50;31.40;;;;;;5007879;28;20474;-73
2022/07/24 11:47:54;;;;;;;3.92;3.60;;;33.80;30.70;;;;;;5004279;28;20811;-73
2022/07/24 11:50:23;;;;;;;3.87;3.57;;;34.00;29.30;;;;;;5008948;28;20417;-78
2022/07/24 11:52:50;;;;;;;3.70;3.50;;;34.00;29.30;;;;;;5012900;28;20855;-75
2022/07/24 11:55:19;;;;;;;3.45;3.25;;;33.90;29.80;;;;;;5014470;28;20441;-77
2022/07/24 11:57:47;;;;;;;3.47;3.28;;;34.00;30.00;;;;;;5014538;28;20418;-76
2022/07/24 12:00:18;;;;;;;3.58;3.30;;;34.00;28.70;;;;;;5013454;28;20429;-78
2022/07/24 12:02:46;;;;;;;3.63;3.40;;;33.70;29.70;;;;;;5014041;28;20500;-75
2022/07/24 12:05:13;;;;;;;3.40;3.20;;;33.90;29.90;;;;;;5013883;28;20436;-73
2022/07/24 12:07:40;;;;;;;3.70;3.50;;;34.10;29.00;;;;;;5014005;28;20457;-74
2022/07/24 12:10:08;;;;;;;3.30;3.10;;;34.10;29.00;;;;;;5012874;28;20418;-74
2022/07/24 12:12:36;;;;;;;3.50;3.30;;;34.30;28.80;;;;;;5013076;28;20426;-73
2022/07/24 12:15:05;;;;;;;3.50;3.23;;;34.40;28.90;;;;;;5011748;28;20457;-73
2022/07/24 12:17:35;;;;;;;3.60;3.40;;;34.50;29.10;;;;;;4994604;28;20504;-73
2022/07/24 12:20:06;;;;;;;3.47;3.28;;;34.70;28.60;;;;;;4990681;28;20415;-73
2022/07/24 12:22:33;;;;;;;3.13;2.90;;;34.90;28.20;;;;;;4990366;28;21129;-72
2022/07/24 12:25:00;;;;;;;3.60;3.40;;;34.90;29.50;;;;;;4991165;28;20414;-74
2022/07/24 12:27:38;;;;;;;3.80;3.38;;;35.00;28.50;;;;;;4991242;28;20497;-71
2022/07/24 12:30:21;;;;;;;3.50;3.30;;;35.10;27.90;;;;;;4990793;28;20429;-72
2022/07/24 12:33:04;;;;;;;3.40;3.20;;;34.90;28.60;;;;;;4992924;28;20436;-73
2022/07/24 12:35:33;;;;;;;3.20;3.00;;;35.10;28.90;;;;;;4992374;28;20613;-72
2022/07/24 12:38:02;;;;;;;2.92;2.80;;;34.80;27.30;;;;;;4991156;28;20481;-71
2022/07/24 12:40:35;;;;;;;3.40;3.10;;;34.30;28.80;;;;;;4991034;28;20434;-71
2022/07/24 12:43:05;;;;;;;3.40;3.20;;;34.20;27.90;;;;;;4991137;28;20496;-72
2022/07/24 12:45:32;;;;;;;3.47;3.28;;;34.00;29.00;;;;;;4991554;28;20518;-71
2022/07/24 12:48:18;;;;;;;3.67;3.40;;;34.20;29.70;;;;;;4993466;28;20422;-75
2022/07/24 12:51:04;;;;;;;3.00;2.90;;;34.50;29.30;;;;;;4994654;28;20440;-74
2022/07/24 12:53:32;;;;;;;3.63;3.33;;;34.70;29.40;;;;;;5001298;28;20935;-73
2022/07/24 12:56:09;;;;;;;3.35;3.15;;;34.90;28.80;;;;;;4996629;28;20525;-71